sensor_id;sensor_type;location;lat;lon;timestamp;pressure;altitude;pressure_sealevel;temperature;humidity
51299;BME280;37382;45.192;9.790;2022-09-16T04:07:49;100046.78;;;19.97;100.00
51299;BME280;37382;45.192;9.790;2022-09-16T04:10:17;100045.91;;;20.17;100.00
51299;BME280;37382;45.192;9.790;2022-09-16T04:12:44;100042.84;;;20.29;100.00
51299;BME280;37382;45.192;9.790;2022-09-16T04:15:12;100036.81;;;20.16;100.00
51299;BME280;37382;45.192;9.790;2022-09-16T04:17:40;100030.94;;;20.38;100.00
51299;BME280;37382;45.192;9.790;2022-09-16T04:20:07;100033.47;;;20.24;100.00
51299;BME280;37382;45.192;9.790;2022-09-16T04:22:35;100036.50;;;20.23;100.00
51299;BME280;37382;45.192;9.790;2022-09-16T04:25:02;100035.66;;;20.38;100.00
51299;BME280;37382;45.192;9.790;2022-09-16T04:27:30;100037.56;;;20.42;100.00
51299;BME280;37382;45.192;9.790;2022-09-16T04:29:58;100039.53;;;20.26;100.00
51299;BME280;37382;45.192;9.790;2022-09-16T04:32:26;100035.69;;;20.22;100.00
51299;BME280;37382;45.192;9.790;2022-09-16T04:34:54;100036.75;;;20.26;100.00
51299;BME280;37382;45.192;9.790;2022-09-16T04:37:21;100033.50;;;20.09;100.00
51299;BME280;37382;45.192;9.790;2022-09-16T04:39:49;100036.81;;;20.06;100.00
51299;BME280;37382;45.192;9.790;2022-09-16T04:42:17;100042.31;;;20.11;100.00
51299;BME280;37382;45.192;9.790;2022-09-16T04:44:44;100048.66;;;20.22;100.00
51299;BME280;37382;45.192;9.790;2022-09-16T04:47:11;100044.56;;;20.04;100.00
51299;BME280;37382;45.192;9.790;2022-09-16T04:49:39;100051.47;;;19.91;100.00
51299;BME280;37382;45.192;9.790;2022-09-16T04:52:07;100053.94;;;19.93;100.00
51299;BME280;37382;45.192;9.790;2022-09-16T04:54:35;100047.88;;;19.85;100.00
51299;BME280;37382;45.192;9.790;2022-09-16T04:57:03;100053.97;;;19.77;100.00
51299;BME280;37382;45.192;9.790;2022-09-16T04:59:30;100059.75;;;19.91;100.00
51299;BME280;37382;45.192;9.790;2022-09-16T05:01:58;100060.28;;;20.03;100.00
51299;BME280;37382;45.192;9.790;2022-09-16T05:04:26;100062.50;;;20.01;100.00
51299;BME280;37382;45.192;9.790;2022-09-16T05:06:53;100065.53;;;20.00;100.00
51299;BME280;37382;45.192;9.790;2022-09-16T05:09:21;100058.91;;;19.96;100.00
51299;BME280;37382;45.192;9.790;2022-09-16T05:11:48;100057.00;;;19.96;100.00
51299;BME280;37382;45.192;9.790;2022-09-16T05:14:17;100056.72;;;19.98;100.00
51299;BME280;37382;45.192;9.790;2022-09-16T05:16:45;100065.00;;;19.87;100.00
51299;BME280;37382;45.192;9.790;2022-09-16T05:19:13;100064.72;;;19.99;100.00
51299;BME280;37382;45.192;9.790;2022-09-16T05:21:42;100068.84;;;20.07;100.00
51299;BME280;37382;45.192;9.790;2022-09-16T05:24:11;100069.13;;;20.11;100.00
51299;BME280;37382;45.192;9.790;2022-09-16T05:26:40;100065.78;;;20.19;100.00
51299;BME280;37382;45.192;9.790;2022-09-16T05:29:13;100071.81;;;20.47;100.00
51299;BME280;37382;45.192;9.790;2022-09-16T05:31:43;100067.66;;;20.54;100.00
51299;BME280;37382;45.192;9.790;2022-09-16T05:34:14;100071.22;;;20.60;100.00
51299;BME280;37382;45.192;9.790;2022-09-16T05:36:42;100074.53;;;20.62;100.00
51299;BME280;37382;45.192;9.790;2022-09-16T05:39:10;100065.13;;;20.73;100.00
51299;BME280;37382;45.192;9.790;2022-09-16T05:41:57;100074.19;;;20.89;100.00
51299;BME280;37382;45.192;9.790;2022-09-16T05:44:26;100071.84;;;21.17;100.00
51299;BME280;37382;45.192;9.790;2022-09-16T05:46:55;100067.53;;;21.40;100.00
51299;BME280;37382;45.192;9.790;2022-09-16T05:49:23;100067.88;;;21.33;100.00
51299;BME280;37382;45.192;9.790;2022-09-16T05:51:52;100070.66;;;21.28;100.00
51299;BME280;37382;45.192;9.790;2022-09-16T05:54:21;100068.94;;;21.38;100.00
51299;BME280;37382;45.192;9.790;2022-09-16T05:56:51;100078.84;;;21.44;100.00
51299;BME280;37382;45.192;9.790;2022-09-16T05:59:19;100078.63;;;21.80;100.00
51299;BME280;37382;45.192;9.790;2022-09-16T06:01:46;100072.38;;;21.98;100.00
51299;BME280;37382;45.192;9.790;2022-09-16T06:04:14;100066.91;;;21.93;100.00
51299;BME280;37382;45.192;9.790;2022-09-16T06:06:45;100067.53;;;21.85;100.00
51299;BME280;37382;45.192;9.790;2022-09-16T06:09:19;100071.41;;;21.84;100.00
51299;BME280;37382;45.192;9.790;2022-09-16T06:11:49;100073.56;;;21.92;100.00
51299;BME280;37382;45.192;9.790;2022-09-16T06:14:18;100064.66;;;21.95;100.00
51299;BME280;37382;45.192;9.790;2022-09-16T06:16:46;100069.53;;;22.09;100.00
51299;BME280;37382;45.192;9.790;2022-09-16T06:19:15;100066.91;;;22.23;100.00
51299;BME280;37382;45.192;9.790;2022-09-16T06:21:44;100069.63;;;22.28;100.00
51299;BME280;37382;45.192;9.790;2022-09-16T06:24:14;100074.09;;;22.53;100.00
51299;BME280;37382;45.192;9.790;2022-09-16T06:26:43;100078.56;;;22.49;100.00
51299;BME280;37382;45.192;9.790;2022-09-16T06:29:11;100073.28;;;22.77;100.00
51299;BME280;37382;45.192;9.790;2022-09-16T06:31:39;100083.91;;;22.69;100.00
51299;BME280;37382;45.192;9.790;2022-09-16T06:34:13;100083.72;;;22.61;100.00
51299;BME280;37382;45.192;9.790;2022-09-16T06:36:41;100077.09;;;22.81;100.00
51299;BME280;37382;45.192;9.790;2022-09-16T06:39:13;100074.28;;;22.62;100.00
51299;BME280;37382;45.192;9.790;2022-09-16T06:41:42;100076.06;;;22.77;100.00
51299;BME280;37382;45.192;9.790;2022-09-16T06:44:09;100076.03;;;23.01;100.00
51299;BME280;37382;45.192;9.790;2022-09-16T06:46:37;100075.28;;;22.95;100.00
51299;BME280;37382;45.192;9.790;2022-09-16T06:49:05;100079.03;;;23.04;100.00
51299;BME280;37382;45.192;9.790;2022-09-16T06:51:34;100075.50;;;22.99;100.00
51299;BME280;37382;45.192;9.790;2022-09-16T06:54:04;100068.66;;;22.91;100.00
51299;BME280;37382;45.192;9.790;2022-09-16T06:56:33;100068.06;;;22.94;100.00
51299;BME280;37382;45.192;9.790;2022-09-16T06:59:04;100066.72;;;23.35;100.00
51299;BME280;37382;45.192;9.790;2022-09-16T07:01:32;100075.41;;;23.28;100.00
51299;BME280;37382;45.192;9.790;2022-09-16T07:04:05;100083.81;;;23.23;100.00
51299;BME280;37382;45.192;9.790;2022-09-16T07:06:34;100071.81;;;23.47;100.00
51299;BME280;37382;45.192;9.790;2022-09-16T07:09:22;100074.13;;;23.58;100.00
51299;BME280;37382;45.192;9.790;2022-09-16T07:11:50;100074.97;;;23.59;100.00
51299;BME280;37382;45.192;9.790;2022-09-16T07:14:17;100070.13;;;23.84;100.00
51299;BME280;37382;45.192;9.790;2022-09-16T07:16:45;100078.09;;;23.71;100.00
51299;BME280;37382;45.192;9.790;2022-09-16T07:19:13;100076.75;;;23.88;100.00
51299;BME280;37382;45.192;9.790;2022-09-16T07:21:40;100080.34;;;23.88;100.00
51299;BME280;37382;45.192;9.790;2022-09-16T07:24:11;100088.16;;;24.19;100.00
51299;BME280;37382;45.192;9.790;2022-09-16T07:26:40;100088.09;;;24.38;100.00
51299;BME280;37382;45.192;9.790;2022-09-16T07:29:11;100084.47;;;24.38;100.00
51299;BME280;37382;45.192;9.790;2022-09-16T07:31:40;100091.75;;;24.66;100.00
51299;BME280;37382;45.192;9.790;2022-09-16T07:34:09;100089.66;;;25.14;100.00
51299;BME280;37382;45.192;9.790;2022-09-16T07:36:47;100097.31;;;25.59;100.00
51299;BME280;37382;45.192;9.790;2022-09-16T07:39:17;100099.94;;;25.41;100.00
51299;BME280;37382;45.192;9.790;2022-09-16T07:41:46;100096.06;;;25.14;100.00
51299;BME280;37382;45.192;9.790;2022-09-16T07:44:16;100103.06;;;25.12;100.00
51299;BME280;37382;45.192;9.790;2022-09-16T07:46:44;100091.50;;;25.04;100.00
51299;BME280;37382;45.192;9.790;2022-09-16T07:49:13;100095.22;;;25.14;100.00
51299;BME280;37382;45.192;9.790;2022-09-16T07:51:41;100093.50;;;25.04;100.00
51299;BME280;37382;45.192;9.790;2022-09-16T07:54:13;100103.69;;;24.95;100.00
51299;BME280;37382;45.192;9.790;2022-09-16T07:56:41;100100.00;;;24.72;100.00
51299;BME280;37382;45.192;9.790;2022-09-16T07:59:13;100097.59;;;24.65;100.00
51299;BME280;37382;45.192;9.790;2022-09-16T08:01:46;100104.66;;;24.43;100.00
51299;BME280;37382;45.192;9.790;2022-09-16T08:04:15;100107.91;;;24.64;100.00
51299;BME280;37382;45.192;9.790;2022-09-16T08:06:43;100101.97;;;24.85;100.00
51299;BME280;37382;45.192;9.790;2022-09-16T08:09:10;100098.53;;;24.60;100.00
51299;BME280;37382;45.192;9.790;2022-09-16T08:11:58;100102.25;;;24.97;100.00
51299;BME280;37382;45.192;9.790;2022-09-16T08:14:27;100104.91;;;25.16;100.00
51299;BME280;37382;45.192;9.790;2022-09-16T08:16:56;100101.47;;;25.47;100.00
51299;BME280;37382;45.192;9.790;2022-09-16T08:19:24;100101.38;;;25.52;100.00
51299;BME280;37382;45.192;9.790;2022-09-16T08:21:51;100101.53;;;25.56;100.00
51299;BME280;37382;45.192;9.790;2022-09-16T08:24:19;100098.66;;;25.61;100.00
51299;BME280;37382;45.192;9.790;2022-09-16T08:26:47;100094.19;;;25.37;100.00
51299;BME280;37382;45.192;9.790;2022-09-16T08:29:14;100087.19;;;25.85;100.00
51299;BME280;37382;45.192;9.790;2022-09-16T08:31:42;100092.50;;;25.73;100.00
51299;BME280;37382;45.192;9.790;2022-09-16T08:34:09;100090.59;;;25.82;100.00
51299;BME280;37382;45.192;9.790;2022-09-16T08:36:36;100081.78;;;26.03;100.00
51299;BME280;37382;45.192;9.790;2022-09-16T08:39:04;100084.66;;;26.20;100.00
51299;BME280;37382;45.192;9.790;2022-09-16T08:46:55;100076.94;;;26.17;100.00
51299;BME280;37382;45.192;9.790;2022-09-16T08:49:34;100072.53;;;26.25;100.00
51299;BME280;37382;45.192;9.790;2022-09-16T08:52:33;100078.19;;;26.34;100.00
51299;BME280;37382;45.192;9.790;2022-09-16T08:55:07;100072.50;;;26.48;100.00
51299;BME280;37382;45.192;9.790;2022-09-16T08:58:01;100085.69;;;26.64;100.00
51299;BME280;37382;45.192;9.790;2022-09-16T09:00:29;100073.13;;;26.44;100.00
51299;BME280;37382;45.192;9.790;2022-09-16T09:05:51;100079.69;;;26.40;100.00
51299;BME280;37382;45.192;9.790;2022-09-16T09:08:36;100072.91;;;26.32;100.00
51299;BME280;37382;45.192;9.790;2022-09-16T09:11:46;100080.69;;;26.75;100.00
51299;BME280;37382;45.192;9.790;2022-09-16T09:20:47;100058.06;;;26.86;100.00
51299;BME280;37382;45.192;9.790;2022-09-16T09:23:28;100059.72;;;26.87;100.00
51299;BME280;37382;45.192;9.790;2022-09-16T09:26:07;100057.09;;;26.82;100.00
51299;BME280;37382;45.192;9.790;2022-09-16T09:31:30;100038.25;;;27.05;100.00
51299;BME280;37382;45.192;9.790;2022-09-16T09:42:17;100029.19;;;26.99;100.00
51299;BME280;37382;45.192;9.790;2022-09-16T09:44:59;100030.06;;;27.26;100.00
51299;BME280;37382;45.192;9.790;2022-09-16T09:47:47;100029.25;;;27.43;100.00
51299;BME280;37382;45.192;9.790;2022-09-16T09:52:56;100019.03;;;27.21;100.00
51299;BME280;37382;45.192;9.790;2022-09-16T09:55:26;100014.25;;;26.46;100.00
51299;BME280;37382;45.192;9.790;2022-09-16T10:01:01;100014.88;;;26.92;100.00
51299;BME280;37382;45.192;9.790;2022-09-16T10:03:31;100008.69;;;27.65;100.00
51299;BME280;37382;45.192;9.790;2022-09-16T10:05:58;100013.53;;;28.12;100.00
51299;BME280;37382;45.192;9.790;2022-09-16T10:08:42;100017.91;;;28.30;100.00
51299;BME280;37382;45.192;9.790;2022-09-16T10:11:21;100018.13;;;28.25;100.00
51299;BME280;37382;45.192;9.790;2022-09-16T10:13:55;100015.22;;;28.43;100.00
51299;BME280;37382;45.192;9.790;2022-09-16T10:16:28;100025.25;;;28.05;100.00
51299;BME280;37382;45.192;9.790;2022-09-16T10:19:18;100015.59;;;27.76;100.00
51299;BME280;37382;45.192;9.790;2022-09-16T10:21:53;100012.31;;;27.30;100.00
51299;BME280;37382;45.192;9.790;2022-09-16T10:26:55;100000.50;;;27.51;100.00
51299;BME280;37382;45.192;9.790;2022-09-16T10:29:23;99995.16;;;26.71;100.00
51299;BME280;37382;45.192;9.790;2022-09-16T10:31:51;99994.06;;;27.15;100.00
51299;BME280;37382;45.192;9.790;2022-09-16T10:34:31;99985.69;;;27.15;100.00
51299;BME280;37382;45.192;9.790;2022-09-16T10:39:33;99992.56;;;27.71;100.00
51299;BME280;37382;45.192;9.790;2022-09-16T10:42:01;99984.88;;;27.59;100.00
51299;BME280;37382;45.192;9.790;2022-09-16T10:44:33;99980.59;;;27.44;100.00
51299;BME280;37382;45.192;9.790;2022-09-16T10:47:04;99976.75;;;27.92;100.00
51299;BME280;37382;45.192;9.790;2022-09-16T10:49:43;99976.16;;;28.25;100.00
51299;BME280;37382;45.192;9.790;2022-09-16T10:52:15;99978.47;;;28.23;100.00
51299;BME280;37382;45.192;9.790;2022-09-16T10:54:43;99965.75;;;27.96;100.00
51299;BME280;37382;45.192;9.790;2022-09-16T11:00:01;99963.09;;;27.91;100.00
51299;BME280;37382;45.192;9.790;2022-09-16T11:05:12;99964.28;;;28.88;97.62
51299;BME280;37382;45.192;9.790;2022-09-16T11:18:45;99950.78;;;29.66;89.62
51299;BME280;37382;45.192;9.790;2022-09-16T11:32:23;99937.00;;;29.27;85.91
51299;BME280;37382;45.192;9.790;2022-09-16T11:35:12;99926.31;;;29.54;84.47
51299;BME280;37382;45.192;9.790;2022-09-16T11:41:10;99922.97;;;29.06;84.65
51299;BME280;37382;45.192;9.790;2022-09-16T11:46:45;99901.91;;;30.37;78.51
51299;BME280;37382;45.192;9.790;2022-09-16T11:57:22;99886.56;;;30.72;74.63
51299;BME280;37382;45.192;9.790;2022-09-16T11:59:55;99888.22;;;29.74;76.25
51299;BME280;37382;45.192;9.790;2022-09-16T12:02:34;99883.09;;;30.13;74.83
51299;BME280;37382;45.192;9.790;2022-09-16T12:05:23;99874.09;;;30.20;77.30
51299;BME280;37382;45.192;9.790;2022-09-16T12:16:07;99860.81;;;31.10;70.09
51299;BME280;37382;45.192;9.790;2022-09-16T12:18:56;99849.38;;;30.91;72.03
51299;BME280;37382;45.192;9.790;2022-09-16T12:22:02;99849.97;;;31.25;74.18
51299;BME280;37382;45.192;9.790;2022-09-16T12:27:43;99833.06;;;30.40;70.60
51299;BME280;37382;45.192;9.790;2022-09-16T12:30:16;99828.56;;;30.92;70.03
51299;BME280;37382;45.192;9.790;2022-09-16T12:32:51;99823.13;;;31.11;65.92
51299;BME280;37382;45.192;9.790;2022-09-16T12:35:27;99817.34;;;31.52;63.84
51299;BME280;37382;45.192;9.790;2022-09-16T12:38:02;99818.19;;;31.68;64.27
51299;BME280;37382;45.192;9.790;2022-09-16T12:53:11;99796.34;;;31.62;59.70
51299;BME280;37382;45.192;9.790;2022-09-16T13:01:38;99790.63;;;32.64;58.85
51299;BME280;37382;45.192;9.790;2022-09-16T13:04:26;99795.53;;;32.28;58.42
51299;BME280;37382;45.192;9.790;2022-09-16T13:06:57;99791.06;;;32.27;61.22
51299;BME280;37382;45.192;9.790;2022-09-16T13:09:27;99786.53;;;31.87;56.86
51299;BME280;37382;45.192;9.790;2022-09-16T13:12:06;99788.88;;;32.56;54.72
51299;BME280;37382;45.192;9.790;2022-09-16T13:15:04;99773.38;;;32.86;54.78
51299;BME280;37382;45.192;9.790;2022-09-16T13:17:35;99771.03;;;32.88;53.41
51299;BME280;37382;45.192;9.790;2022-09-16T13:20:25;99774.63;;;33.31;52.98
51299;BME280;37382;45.192;9.790;2022-09-16T13:23:17;99760.53;;;33.31;52.52
51299;BME280;37382;45.192;9.790;2022-09-16T13:25:50;99763.75;;;33.29;50.45
51299;BME280;37382;45.192;9.790;2022-09-16T13:28:44;99767.66;;;33.02;50.13
51299;BME280;37382;45.192;9.790;2022-09-16T13:34:02;99762.56;;;32.88;50.41
51299;BME280;37382;45.192;9.790;2022-09-16T13:36:32;99755.91;;;33.19;48.53
51299;BME280;37382;45.192;9.790;2022-09-16T13:39:04;99755.44;;;32.94;47.09
51299;BME280;37382;45.192;9.790;2022-09-16T13:41:38;99756.72;;;32.38;47.08
51299;BME280;37382;45.192;9.790;2022-09-16T13:52:25;99741.59;;;33.78;45.67
51299;BME280;37382;45.192;9.790;2022-09-16T13:54:54;99730.84;;;33.87;46.98
51299;BME280;37382;45.192;9.790;2022-09-16T14:00:21;99731.94;;;34.39;45.53
51299;BME280;37382;45.192;9.790;2022-09-16T14:02:56;99713.25;;;35.44;42.60
51299;BME280;37382;45.192;9.790;2022-09-16T14:11:38;99619.28;;;44.26;24.12
51299;BME280;37382;45.192;9.790;2022-09-16T14:14:13;99621.63;;;46.28;23.35
51299;BME280;37382;45.192;9.790;2022-09-16T14:17:14;99620.50;;;47.34;22.08
51299;BME280;37382;45.192;9.790;2022-09-16T14:19:43;99634.44;;;50.54;19.12
51299;BME280;37382;45.192;9.790;2022-09-16T14:22:15;99642.94;;;46.71;22.12
51299;BME280;37382;45.192;9.790;2022-09-16T14:24:46;99697.59;;;44.35;23.91
51299;BME280;37382;45.192;9.790;2022-09-16T14:27:29;99645.31;;;47.60;21.22
51299;BME280;37382;45.192;9.790;2022-09-16T14:29:59;99644.69;;;48.44;19.87
51299;BME280;37382;45.192;9.790;2022-09-16T14:32:29;99654.91;;;49.37;18.98
51299;BME280;37382;45.192;9.790;2022-09-16T14:35:02;99652.28;;;48.66;19.45
51299;BME280;37382;45.192;9.790;2022-09-16T14:37:31;99681.22;;;44.06;22.37
51299;BME280;37382;45.192;9.790;2022-09-16T14:40:06;99682.88;;;39.64;27.95
51299;BME280;37382;45.192;9.790;2022-09-16T14:42:47;99678.06;;;39.12;29.09
51299;BME280;37382;45.192;9.790;2022-09-16T14:45:15;99673.47;;;37.74;30.86
51299;BME280;37382;45.192;9.790;2022-09-16T14:47:44;99670.22;;;44.05;23.24
51299;BME280;37382;45.192;9.790;2022-09-16T14:50:31;99665.97;;;47.39;19.87
51299;BME280;37382;45.192;9.790;2022-09-16T14:53:04;99668.72;;;50.11;17.65
51299;BME280;37382;45.192;9.790;2022-09-16T14:55:34;99659.31;;;51.58;16.50
51299;BME280;37382;45.192;9.790;2022-09-16T14:58:08;99665.69;;;49.36;17.75
51299;BME280;37382;45.192;9.790;2022-09-16T15:00:47;99667.78;;;49.50;16.98
51299;BME280;37382;45.192;9.790;2022-09-16T15:03:23;99660.31;;;49.44;17.06
51299;BME280;37382;45.192;9.790;2022-09-16T15:05:53;99655.53;;;52.62;15.35
51299;BME280;37382;45.192;9.790;2022-09-16T15:08:26;99658.44;;;51.99;16.21
51299;BME280;37382;45.192;9.790;2022-09-16T15:10:57;99641.84;;;49.65;17.89
51299;BME280;37382;45.192;9.790;2022-09-16T15:13:27;99653.25;;;50.44;16.01
51299;BME280;37382;45.192;9.790;2022-09-16T15:16:00;99644.66;;;46.68;20.67
51299;BME280;37382;45.192;9.790;2022-09-16T15:18:30;99642.78;;;44.59;23.80
51299;BME280;37382;45.192;9.790;2022-09-16T15:21:06;99640.06;;;45.29;24.16
51299;BME280;37382;45.192;9.790;2022-09-16T15:23:37;99634.53;;;43.18;27.05
51299;BME280;37382;45.192;9.790;2022-09-16T15:26:10;99631.63;;;41.12;30.01
51299;BME280;37382;45.192;9.790;2022-09-16T15:29:02;99634.66;;;41.48;29.63
51299;BME280;37382;45.192;9.790;2022-09-16T15:31:31;99632.66;;;42.25;28.51
51299;BME280;37382;45.192;9.790;2022-09-16T15:34:02;99626.06;;;43.14;27.37
51299;BME280;37382;45.192;9.790;2022-09-16T15:36:44;99634.84;;;45.72;24.86
51299;BME280;37382;45.192;9.790;2022-09-16T15:42:09;99626.63;;;45.83;23.89
51299;BME280;37382;45.192;9.790;2022-09-16T15:44:42;99627.69;;;45.98;24.01
51299;BME280;37382;45.192;9.790;2022-09-16T15:47:27;99618.72;;;47.28;22.87
51299;BME280;37382;45.192;9.790;2022-09-16T15:50:00;99612.41;;;45.79;23.72
51299;BME280;37382;45.192;9.790;2022-09-16T15:52:33;99609.44;;;42.76;27.14
51299;BME280;37382;45.192;9.790;2022-09-16T15:55:04;99610.69;;;43.08;28.12
51299;BME280;37382;45.192;9.790;2022-09-16T15:57:40;99610.97;;;42.28;28.02
51299;BME280;37382;45.192;9.790;2022-09-16T16:00:11;99607.50;;;39.76;31.06
51299;BME280;37382;45.192;9.790;2022-09-16T16:02:54;99614.31;;;37.54;34.28
51299;BME280;37382;45.192;9.790;2022-09-16T16:05:26;99606.13;;;39.08;32.15
51299;BME280;37382;45.192;9.790;2022-09-16T16:07:58;99608.75;;;38.32;34.00
51299;BME280;37382;45.192;9.790;2022-09-16T16:10:31;99613.94;;;37.42;34.52
51299;BME280;37382;45.192;9.790;2022-09-16T16:13:00;99611.47;;;35.48;36.99
51299;BME280;37382;45.192;9.790;2022-09-16T16:15:35;99613.56;;;34.61;39.59
51299;BME280;37382;45.192;9.790;2022-09-16T16:18:06;99619.25;;;33.63;41.00
51299;BME280;37382;45.192;9.790;2022-09-16T16:20:35;99608.25;;;33.01;42.96
51299;BME280;37382;45.192;9.790;2022-09-16T16:23:03;99621.28;;;32.86;44.05
51299;BME280;37382;45.192;9.790;2022-09-16T16:25:30;99620.81;;;32.37;46.02
51299;BME280;37382;45.192;9.790;2022-09-16T16:27:58;99609.19;;;31.80;47.06
51299;BME280;37382;45.192;9.790;2022-09-16T16:30:26;99613.09;;;31.40;49.19
51299;BME280;37382;45.192;9.790;2022-09-16T16:32:53;99610.00;;;31.10;50.99
51299;BME280;37382;45.192;9.790;2022-09-16T16:35:21;99604.47;;;30.65;52.62
51299;BME280;37382;45.192;9.790;2022-09-16T16:37:49;99608.34;;;30.61;52.90
51299;BME280;37382;45.192;9.790;2022-09-16T16:40:16;99610.31;;;30.60;54.47
51299;BME280;37382;45.192;9.790;2022-09-16T16:42:43;99603.47;;;30.58;54.19
51299;BME280;37382;45.192;9.790;2022-09-16T16:45:13;99601.94;;;30.32;55.66
51299;BME280;37382;45.192;9.790;2022-09-16T16:47:42;99606.63;;;30.28;56.34
51299;BME280;37382;45.192;9.790;2022-09-16T16:50:10;99606.50;;;30.52;55.80
51299;BME280;37382;45.192;9.790;2022-09-16T16:52:38;99602.63;;;30.13;56.92
51299;BME280;37382;45.192;9.790;2022-09-16T16:55:06;99607.34;;;30.25;56.31
51299;BME280;37382;45.192;9.790;2022-09-16T16:57:34;99604.84;;;30.36;55.27
51299;BME280;37382;45.192;9.790;2022-09-16T17:00:02;99598.50;;;30.23;56.62
51299;BME280;37382;45.192;9.790;2022-09-16T17:02:29;99600.09;;;30.24;55.64
51299;BME280;37382;45.192;9.790;2022-09-16T17:04:57;99598.53;;;30.10;56.44
51299;BME280;37382;45.192;9.790;2022-09-16T17:07:24;99606.50;;;30.08;57.07
51299;BME280;37382;45.192;9.790;2022-09-16T17:09:54;99595.63;;;30.07;57.35
51299;BME280;37382;45.192;9.790;2022-09-16T17:12:26;99597.69;;;29.94;57.57
51299;BME280;37382;45.192;9.790;2022-09-16T17:14:53;99598.50;;;29.94;58.45
51299;BME280;37382;45.192;9.790;2022-09-16T17:17:21;99598.19;;;29.84;59.72
51299;BME280;37382;45.192;9.790;2022-09-16T17:19:55;99605.84;;;29.46;60.77
51299;BME280;37382;45.192;9.790;2022-09-16T17:22:22;99615.31;;;29.04;64.77
51299;BME280;37382;45.192;9.790;2022-09-16T17:24:50;99608.31;;;29.10;63.11
51299;BME280;37382;45.192;9.790;2022-09-16T17:27:17;99603.41;;;28.95;62.81
51299;BME280;37382;45.192;9.790;2022-09-16T17:29:46;99605.88;;;28.97;65.25
51299;BME280;37382;45.192;9.790;2022-09-16T17:32:14;99601.91;;;28.98;65.71
51299;BME280;37382;45.192;9.790;2022-09-16T17:34:42;99609.13;;;29.11;63.98
51299;BME280;37382;45.192;9.790;2022-09-16T17:37:10;99602.13;;;28.80;67.50
51299;BME280;37382;45.192;9.790;2022-09-16T17:39:37;99599.91;;;28.98;66.19
51299;BME280;37382;45.192;9.790;2022-09-16T17:42:05;99602.47;;;29.03;66.36
51299;BME280;37382;45.192;9.790;2022-09-16T17:44:32;99599.91;;;28.86;68.01
51299;BME280;37382;45.192;9.790;2022-09-16T17:47:00;99600.00;;;28.65;68.55
51299;BME280;37382;45.192;9.790;2022-09-16T17:49:29;99599.56;;;28.63;70.39
51299;BME280;37382;45.192;9.790;2022-09-16T17:51:57;99601.38;;;28.58;71.07
51299;BME280;37382;45.192;9.790;2022-09-16T17:54:24;99596.34;;;28.52;72.40
51299;BME280;37382;45.192;9.790;2022-09-16T17:56:52;99601.75;;;28.24;75.78
51299;BME280;37382;45.192;9.790;2022-09-16T17:59:19;99598.47;;;28.21;77.54
51299;BME280;37382;45.192;9.790;2022-09-16T18:01:46;99602.75;;;28.07;78.75
51299;BME280;37382;45.192;9.790;2022-09-16T18:04:15;99604.50;;;28.11;78.27
51299;BME280;37382;45.192;9.790;2022-09-16T18:06:44;99604.28;;;27.95;82.83
51299;BME280;37382;45.192;9.790;2022-09-16T18:09:12;99608.88;;;28.00;81.22
51299;BME280;37382;45.192;9.790;2022-09-16T18:11:40;99612.84;;;27.78;82.77
51299;BME280;37382;45.192;9.790;2022-09-16T18:14:10;99614.38;;;27.87;82.70
51299;BME280;37382;45.192;9.790;2022-09-16T18:16:41;99620.38;;;27.77;84.71
51299;BME280;37382;45.192;9.790;2022-09-16T18:19:09;99620.41;;;27.56;85.27
51299;BME280;37382;45.192;9.790;2022-09-16T18:21:37;99615.41;;;27.83;82.57
51299;BME280;37382;45.192;9.790;2022-09-16T18:24:06;99618.94;;;27.92;82.32
51299;BME280;37382;45.192;9.790;2022-09-16T18:26:38;99619.13;;;27.75;83.18
51299;BME280;37382;45.192;9.790;2022-09-16T18:29:11;99612.28;;;27.63;84.20
51299;BME280;37382;45.192;9.790;2022-09-16T18:31:43;99619.50;;;27.64;85.23
51299;BME280;37382;45.192;9.790;2022-09-16T18:34:12;99615.91;;;27.64;85.77
51299;BME280;37382;45.192;9.790;2022-09-16T18:36:40;99616.34;;;27.45;87.13
51299;BME280;37382;45.192;9.790;2022-09-16T18:39:12;99618.00;;;27.46;87.24
51299;BME280;37382;45.192;9.790;2022-09-16T18:41:41;99618.13;;;27.49;90.39
51299;BME280;37382;45.192;9.790;2022-09-16T18:44:16;99614.94;;;27.30;92.31
51299;BME280;37382;45.192;9.790;2022-09-16T18:46:46;99613.00;;;27.30;91.49
51299;BME280;37382;45.192;9.790;2022-09-16T18:49:15;99620.53;;;27.30;93.62
51299;BME280;37382;45.192;9.790;2022-09-16T18:51:44;99610.97;;;27.40;92.07
51299;BME280;37382;45.192;9.790;2022-09-16T18:54:23;99626.53;;;27.20;94.09
51299;BME280;37382;45.192;9.790;2022-09-16T18:56:58;99628.63;;;27.23;92.18
51299;BME280;37382;45.192;9.790;2022-09-16T18:59:29;99634.03;;;27.28;91.26
51299;BME280;37382;45.192;9.790;2022-09-16T19:01:59;99631.94;;;27.16;92.35
51299;BME280;37382;45.192;9.790;2022-09-16T19:04:29;99638.06;;;27.09;91.34
51299;BME280;37382;45.192;9.790;2022-09-16T19:07:00;99634.34;;;27.26;91.05
51299;BME280;37382;45.192;9.790;2022-09-16T19:09:34;99640.00;;;27.09;94.21
51299;BME280;37382;45.192;9.790;2022-09-16T19:12:03;99637.69;;;26.81;93.54
51299;BME280;37382;45.192;9.790;2022-09-16T19:14:31;99640.44;;;26.90;95.15
51299;BME280;37382;45.192;9.790;2022-09-16T19:16:59;99647.38;;;26.84;93.25
51299;BME280;37382;45.192;9.790;2022-09-16T19:19:27;99646.03;;;26.90;93.65
51299;BME280;37382;45.192;9.790;2022-09-16T19:21:54;99642.31;;;26.77;93.59
51299;BME280;37382;45.192;9.790;2022-09-16T19:24:24;99650.91;;;27.02;91.71
51299;BME280;37382;45.192;9.790;2022-09-16T19:26:53;99642.97;;;26.74;91.73
51299;BME280;37382;45.192;9.790;2022-09-16T19:29:21;99650.03;;;26.62;93.15
51299;BME280;37382;45.192;9.790;2022-09-16T19:31:50;99643.63;;;26.71;92.12